Elba, Minnesota
Current Conditions -  °F | °C
As of 6:14 PM on Friday 21 Nov 2014 (Local Time) from KONA Reporting Station
Clear Clear  
Wind Chill: -5°   Ceiling: Unl
Heat Index: -1°   Visibility: 10mi
Dew Point: -8°   Wind: 7mph
Humidity: 60%   Direction: 160°SSE
Pressure: 30.1"   Gusts: NA
Location:  44.1503°N, 91.9879°W
Report Text: KONA 220014Z AUTO 16006KT 10SM CLR M01/M08 A3010 RMK AO2
Loading
Personal Weather Stations






























Interactive Weather Map New forecast layout! Learn more

10-Day Weather Forecast

Advertisements
Track Severe Weather on mobile